Time;durP1;ratioP1;P1;durP2;ratioP2;P2;SDS_P1;SDS_P2;PMS_P1;PMS_P2;Temp;Humidity;BMP_temperature;BMP_pressure;BME280_temperature;BME280_humidity;BME280_pressure;Samples;Min_cycle;Max_cycle;Signal;HPM_P1;HPM_P2
2021/07/07 00:01:04;;;;;;;1.25;0.50;;;;;;;17.38;75.59;99711.47;2217678;40;20022;-82
2021/07/07 00:02:37;;;;;;;1.95;0.63;;;;;;;17.43;75.38;99717.09;2215810;40;20041;-82
2021/07/07 00:04:08;;;;;;;2.90;0.85;;;;;;;17.45;75.04;99711.53;2215699;40;20065;-82
2021/07/07 00:05:40;;;;;;;2.50;0.80;;;;;;;17.49;74.92;99718.19;2215752;40;20022;-82
2021/07/07 00:07:17;;;;;;;1.60;0.80;;;;;;;17.51;74.48;99718.00;2216181;40;20036;-87
2021/07/07 00:08:50;;;;;;;1.98;0.75;;;;;;;17.51;74.16;99729.63;2216457;40;20034;-89
2021/07/07 00:10:21;;;;;;;2.40;1.00;;;;;;;17.52;74.38;99725.91;2199435;40;20027;-81
2021/07/07 00:11:55;;;;;;;2.05;0.77;;;;;;;17.52;74.72;99725.09;2222496;40;20057;-88
2021/07/07 00:13:33;;;;;;;3.25;1.17;;;;;;;17.50;75.15;99719.03;2222607;40;20072;-87
2021/07/07 00:15:07;;;;;;;2.10;0.68;;;;;;;17.49;75.40;99734.41;2222758;40;20083;-88
2021/07/07 01:08:09;;;;;;;2.53;1.00;;;;;;;17.16;76.56;99710.69;2213212;40;20045;-80
2021/07/07 01:09:40;;;;;;;2.17;0.80;;;;;;;17.07;76.64;99698.38;2209805;40;20039;-80
2021/07/07 01:11:12;;;;;;;3.88;0.90;;;;;;;16.99;76.82;99704.75;2210638;40;20038;-80
2021/07/07 01:12:44;;;;;;;2.50;0.90;;;;;;;16.98;77.22;99706.63;2220389;40;20037;-81
2021/07/07 01:14:16;;;;;;;2.10;0.70;;;;;;;17.03;77.43;99702.47;2222452;40;20102;-80
2021/07/07 01:15:49;;;;;;;2.60;0.88;;;;;;;17.12;77.30;99712.97;2216918;40;20022;-81
2021/07/07 01:17:20;;;;;;;1.77;0.77;;;;;;;17.19;76.93;99702.22;2216420;40;20106;-86
2021/07/07 01:18:52;;;;;;;5.90;1.00;;;;;;;17.19;76.97;99702.22;2216440;40;20029;-85
2021/07/07 01:20:25;;;;;;;2.72;0.90;;;;;;;17.13;76.93;99709.22;2216599;40;20018;-86
2021/07/07 01:21:58;;;;;;;2.50;0.90;;;;;;;17.13;77.02;99716.47;2215019;40;20018;-86
2021/07/07 01:23:32;;;;;;;3.60;0.77;;;;;;;17.07;77.38;99711.88;2216711;40;20033;-87
2021/07/07 01:25:05;;;;;;;4.40;1.00;;;;;;;17.06;77.27;99702.91;2216954;40;20042;-87
2021/07/07 01:26:37;;;;;;;2.95;0.70;;;;;;;17.13;77.08;99717.34;2214749;40;20029;-83
2021/07/07 01:28:09;;;;;;;4.15;1.00;;;;;;;17.19;76.73;99718.41;2215207;40;20041;-83
2021/07/07 01:29:41;;;;;;;1.98;0.80;;;;;;;17.18;76.43;99721.28;2214465;40;20025;-86
2021/07/07 01:31:13;;;;;;;3.65;0.77;;;;;;;17.17;76.25;99714.22;2222521;40;20038;-88
2021/07/07 01:32:46;;;;;;;3.15;0.98;;;;;;;17.14;76.23;99710.06;2249747;23;20118;-77
2021/07/07 01:34:18;;;;;;;2.97;0.98;;;;;;;17.11;75.89;99721.25;2213986;40;20053;-77
2021/07/07 01:35:49;;;;;;;3.25;1.08;;;;;;;17.09;76.08;99718.75;2215087;40;20072;-77
2021/07/07 01:37:22;;;;;;;2.03;0.80;;;;;;;17.13;76.16;99700.28;2211263;40;20037;-78
2021/07/07 01:38:54;;;;;;;2.17;0.73;;;;;;;17.15;75.99;99700.94;2213383;40;20356;-77
2021/07/07 01:40:27;;;;;;;5.22;1.40;;;;;;;17.13;76.31;99692.19;2208284;40;20061;-77
2021/07/07 01:41:58;;;;;;;2.88;0.80;;;;;;;17.10;76.42;99689.84;2215092;40;20049;-77
2021/07/07 01:43:30;;;;;;;3.92;0.82;;;;;;;17.10;76.51;99692.56;2209223;40;20045;-78
2021/07/07 01:45:02;;;;;;;2.65;0.90;;;;;;;17.15;76.57;99695.53;2212544;40;20091;-77
2021/07/07 01:46:34;;;;;;;0.93;0.50;;;;;;;17.20;76.34;99695.75;2213799;40;20344;-76
2021/07/07 01:48:05;;;;;;;3.85;1.10;;;;;;;17.21;76.53;99689.31;2215173;40;20045;-77
2021/07/07 01:49:37;;;;;;;3.20;0.73;;;;;;;17.13;76.50;99695.72;2213560;40;20040;-77
2021/07/07 01:51:09;;;;;;;2.40;0.73;;;;;;;17.04;76.59;99709.56;2213574;40;20053;-78
2021/07/07 01:52:42;;;;;;;1.55;0.70;;;;;;;17.03;76.87;99702.47;2211739;40;20412;-78
2021/07/07 01:54:14;;;;;;;2.17;0.85;;;;;;;17.09;76.67;99709.81;2212192;40;20054;-78
2021/07/07 01:55:46;;;;;;;3.60;0.85;;;;;;;17.13;76.71;99733.53;2219071;40;20033;-77
2021/07/07 01:57:17;;;;;;;5.07;1.00;;;;;;;17.14;76.85;99740.59;2221297;40;20041;-78
2021/07/07 01:58:49;;;;;;;2.45;0.90;;;;;;;17.11;76.59;99748.25;2215208;40;20033;-77
2021/07/07 02:00:24;;;;;;;4.32;1.00;;;;;;;17.08;77.31;99754.06;2220953;40;20420;-77
2021/07/07 02:01:56;;;;;;;2.30;0.88;;;;;;;17.02;77.34;99755.66;2217060;40;20029;-78
2021/07/07 02:03:28;;;;;;;1.75;0.70;;;;;;;16.98;77.67;99760.63;2214312;40;20037;-78
2021/07/07 02:04:59;;;;;;;1.90;0.80;;;;;;;17.04;78.13;99764.41;2217122;40;20033;-77
2021/07/07 02:06:31;;;;;;;5.25;1.48;;;;;;;17.10;78.31;99742.03;2208447;40;20512;-78
2021/07/07 02:08:07;;;;;;;7.50;1.60;;;;;;;17.17;78.26;99742.09;2212859;40;20033;-78
2021/07/07 02:09:39;;;;;;;4.30;0.90;;;;;;;17.12;78.54;99736.41;2208512;40;20045;-77
2021/07/07 02:11:11;;;;;;;4.68;0.80;;;;;;;17.10;78.34;99736.63;2213152;40;20037;-78
2021/07/07 02:12:43;;;;;;;2.92;1.00;;;;;;;17.12;78.38;99729.16;2214896;40;20034;-77
2021/07/07 02:14:15;;;;;;;3.78;1.08;;;;;;;17.14;78.63;99739.75;2210594;40;20034;-76
2021/07/07 02:15:46;;;;;;;7.03;1.63;;;;;;;17.15;78.78;99747.66;2207269;40;20034;-77
2021/07/07 02:17:18;;;;;;;3.33;1.20;;;;;;;17.13;78.82;99754.28;2205007;40;20065;-77
2021/07/07 02:18:50;;;;;;;5.22;1.80;;;;;;;17.06;79.05;99748.00;2212666;40;20029;-77
2021/07/07 02:20:21;;;;;;;13.73;2.20;;;;;;;17.04;79.17;99748.22;2212661;40;20340;-78
2021/07/07 02:21:52;;;;;;;4.95;1.13;;;;;;;17.06;79.17;99740.72;2209399;40;20050;-77
2021/07/07 02:23:27;;;;;;;2.85;1.20;;;;;;;17.08;79.23;99745.94;2212144;40;20041;-77
2021/07/07 02:24:57;;;;;;;3.60;1.23;;;;;;;17.10;79.46;99736.63;2211096;40;20096;-77
2021/07/07 02:26:29;;;;;;;4.57;1.30;;;;;;;17.10;79.29;99735.75;2208717;40;20404;-77
2021/07/07 02:28:01;;;;;;;4.45;1.30;;;;;;;17.07;79.41;99734.31;2213408;40;20056;-78
2021/07/07 02:29:32;;;;;;;3.42;1.25;;;;;;;17.06;79.27;99739.91;2214550;40;20049;-77
2021/07/07 02:31:04;;;;;;;2.60;1.10;;;;;;;17.09;79.49;99740.34;2211839;40;20033;-77
2021/07/07 02:32:35;;;;;;;2.95;1.00;;;;;;;17.15;79.36;99742.25;2213873;40;20049;-77
2021/07/07 02:34:07;;;;;;;3.13;1.15;;;;;;;17.18;79.40;99751.84;2212594;40;20444;-76
2021/07/07 02:35:41;;;;;;;3.05;0.98;;;;;;;17.19;79.32;99744.56;2213832;40;20041;-77
2021/07/07 02:37:13;;;;;;;3.72;1.23;;;;;;;17.20;79.43;99740.84;2211130;40;20029;-77
2021/07/07 02:38:46;;;;;;;1.92;0.82;;;;;;;17.19;79.67;99745.44;2213863;40;20049;-77
2021/07/07 02:40:17;;;;;;;2.42;0.80;;;;;;;17.20;79.64;99747.06;2211795;40;20046;-77
2021/07/07 02:41:51;;;;;;;3.97;0.93;;;;;;;17.21;79.21;99753.31;2205555;40;20037;-77
2021/07/07 02:43:23;;;;;;;2.65;0.80;;;;;;;17.21;79.49;99756.84;2209265;40;20085;-76
2021/07/07 02:44:54;;;;;;;4.35;0.80;;;;;;;17.22;78.95;99755.81;2215102;40;20069;-77
2021/07/07 02:46:26;;;;;;;2.78;0.70;;;;;;;17.27;78.94;99760.63;2214773;40;20712;-77
2021/07/07 02:47:57;;;;;;;1.80;0.77;;;;;;;17.31;78.97;99751.13;2214131;40;20029;-77
2021/07/07 02:49:29;;;;;;;3.72;1.10;;;;;;;17.30;78.88;99741.34;2214831;40;20058;-78
2021/07/07 02:51:00;;;;;;;3.42;0.80;;;;;;;17.28;78.92;99736.16;2216390;40;20042;-77
2021/07/07 02:52:31;;;;;;;3.72;1.20;;;;;;;17.29;79.08;99726.16;2210470;40;20038;-77
2021/07/07 02:54:04;;;;;;;3.25;1.15;;;;;;;17.27;78.85;99718.28;2214185;40;20049;-77
2021/07/07 02:55:36;;;;;;;3.42;1.00;;;;;;;17.28;78.96;99714.53;2213968;40;20091;-76
2021/07/07 02:57:08;;;;;;;2.03;0.73;;;;;;;17.24;78.93;99704.31;2212604;40;20069;-77
2021/07/07 02:58:38;;;;;;;3.40;0.80;;;;;;;17.18;78.79;99699.69;2208734;40;20042;-76
2021/07/07 03:00:12;;;;;;;6.30;1.13;;;;;;;17.11;79.17;99705.88;2212780;40;20045;-78
2021/07/07 03:01:43;;;;;;;3.80;1.00;;;;;;;17.04;79.31;99701.44;2215582;40;20053;-77
2021/07/07 03:03:18;;;;;;;5.20;1.00;;;;;;;17.03;79.33;99710.59;2212407;40;20049;-77
2021/07/07 03:04:49;;;;;;;2.35;0.93;;;;;;;17.00;79.86;99706.41;2214947;40;20029;-76
2021/07/07 03:06:21;;;;;;;2.83;0.90;;;;;;;17.01;79.67;99718.88;2211571;40;20529;-76
2021/07/07 03:07:52;;;;;;;1.85;0.80;;;;;;;17.03;79.92;99718.69;2214311;40;20053;-77
2021/07/07 03:09:25;;;;;;;5.80;1.17;;;;;;;17.06;79.92;99712.91;2210954;40;20486;-77
2021/07/07 03:10:58;;;;;;;2.42;1.00;;;;;;;17.07;79.55;99731.59;2213878;40;20034;-76
2021/07/07 03:12:28;;;;;;;3.90;1.10;;;;;;;17.09;79.75;99734.13;2211314;40;20038;-77
2021/07/07 03:14:00;;;;;;;2.13;0.90;;;;;;;17.05;79.51;99732.84;2207839;40;20060;-76
2021/07/07 03:15:31;;;;;;;2.92;1.23;;;;;;;17.01;79.40;99729.69;2210904;40;20786;-76
2021/07/07 03:17:04;;;;;;;3.80;1.00;;;;;;;17.00;79.54;99738.81;2213227;40;20037;-76
2021/07/07 03:18:35;;;;;;;2.55;1.00;;;;;;;17.04;79.39;99747.34;2218630;40;20045;-76
2021/07/07 03:20:08;;;;;;;4.22;0.77;;;;;;;17.08;79.71;99748.66;2213384;40;20064;-77
2021/07/07 03:21:39;;;;;;;3.10;0.98;;;;;;;17.11;79.79;99751.78;2214841;40;20537;-76
2021/07/07 03:23:12;;;;;;;2.90;1.00;;;;;;;17.13;79.63;99748.88;2213513;40;20042;-75
2021/07/07 03:24:44;;;;;;;4.07;1.38;;;;;;;17.14;79.89;99739.75;2214427;40;20061;-76
2021/07/07 03:26:16;;;;;;;2.03;0.82;;;;;;;17.13;80.02;99746.19;2209905;40;20090;-76
2021/07/07 03:27:49;;;;;;;4.90;1.00;;;;;;;17.14;80.21;99737.06;2217347;40;20557;-75
2021/07/07 03:29:25;;;;;;;3.50;1.20;;;;;;;17.14;80.01;99745.97;2211969;40;20383;-76
2021/07/07 03:30:57;;;;;;;2.03;0.75;;;;;;;17.15;80.33;99755.75;2208062;40;20061;-76
2021/07/07 03:32:27;;;;;;;3.75;1.40;;;;;;;17.17;80.12;99755.59;2210809;40;20037;-75
2021/07/07 03:33:59;;;;;;;3.80;1.50;;;;;;;17.17;80.25;99744.78;2213766;40;20052;-77
2021/07/07 03:35:32;;;;;;;4.28;1.50;;;;;;;17.14;80.41;99745.16;2213657;40;20026;-76
2021/07/07 03:37:04;;;;;;;3.53;1.05;;;;;;;17.13;80.44;99747.03;2209854;40;20057;-80
2021/07/07 03:38:36;;;;;;;4.82;1.40;;;;;;;17.16;80.57;99756.63;2210892;40;20054;-77
2021/07/07 03:40:11;;;;;;;3.40;1.00;;;;;;;17.17;80.58;99758.28;2212269;40;20044;-77
2021/07/07 03:41:43;;;;;;;3.65;1.45;;;;;;;17.16;80.72;99762.00;2211751;40;20038;-77
2021/07/07 03:43:14;;;;;;;3.58;1.30;;;;;;;17.13;80.57;99760.53;2211403;40;20632;-76
2021/07/07 03:44:45;;;;;;;4.38;1.40;;;;;;;17.13;80.93;99762.38;2211667;40;20058;-76
2021/07/07 03:46:18;;;;;;;3.60;1.30;;;;;;;17.09;80.82;99761.13;2212329;40;20056;-78
2021/07/07 03:47:48;;;;;;;3.42;1.17;;;;;;;17.08;81.16;99764.84;2215656;40;20049;-77
2021/07/07 03:49:20;;;;;;;4.22;1.63;;;;;;;17.07;80.93;99757.78;2212600;40;20085;-77
2021/07/07 03:50:51;;;;;;;5.53;1.38;;;;;;;17.00;81.30;99768.50;2215272;40;20037;-76
2021/07/07 03:52:23;;;;;;;3.47;1.40;;;;;;;16.96;81.27;99761.81;2211941;40;20037;-76
2021/07/07 03:53:55;;;;;;;6.28;1.65;;;;;;;16.91;81.44;99759.66;2212604;40;20064;-77
2021/07/07 03:55:28;;;;;;;7.38;2.03;;;;;;;16.87;81.64;99766.50;2209460;40;20064;-76
2021/07/07 03:57:00;;;;;;;4.43;1.67;;;;;;;16.86;81.96;99772.09;2209354;40;20045;-77
2021/07/07 03:58:32;;;;;;;4.70;1.35;;;;;;;16.86;81.94;99769.41;2209432;40;20034;-77
2021/07/07 04:00:06;;;;;;;5.15;1.27;;;;;;;16.90;81.56;99770.66;2213557;40;20056;-77
2021/07/07 04:01:38;;;;;;;6.63;2.38;;;;;;;16.97;81.75;99763.50;2211794;40;20038;-77
2021/07/07 04:03:11;;;;;;;5.88;2.35;;;;;;;17.02;81.83;99763.75;2213939;40;20045;-77
2021/07/07 04:04:43;;;;;;;4.13;1.90;;;;;;;17.04;81.67;99760.84;2212523;40;20474;-77
2021/07/07 04:06:15;;;;;;;8.02;2.80;;;;;;;17.07;81.79;99769.41;2208497;40;20054;-76
2021/07/07 04:07:47;;;;;;;4.90;1.77;;;;;;;17.09;81.41;99761.94;2209177;40;20060;-76
2021/07/07 04:09:19;;;;;;;5.45;2.30;;;;;;;17.12;81.47;99763.41;2211189;40;20431;-77
2021/07/07 04:10:53;;;;;;;5.30;2.05;;;;;;;17.09;81.15;99766.53;2211461;40;20314;-76
2021/07/07 04:12:23;;;;;;;5.60;1.92;;;;;;;17.05;81.13;99752.56;2213274;40;20030;-76
2021/07/07 04:13:55;;;;;;;4.28;1.83;;;;;;;17.09;81.25;99744.94;2212582;40;20065;-77
2021/07/07 04:15:27;;;;;;;6.22;3.35;;;;;;;17.09;81.40;99739.53;2211929;40;20034;-78
2021/07/07 04:16:59;;;;;;;6.40;3.17;;;;;;;17.06;80.96;99739.91;2214151;40;20048;-78
2021/07/07 04:18:31;;;;;;;5.38;1.70;;;;;;;17.01;81.36;99751.28;2209682;40;20369;-78
2021/07/07 04:20:04;;;;;;;11.27;4.45;;;;;;;16.95;81.13;99758.28;2211636;40;20060;-78
2021/07/07 04:21:36;;;;;;;7.90;2.00;;;;;;;16.93;81.52;99754.94;2212978;40;20033;-79
2021/07/07 04:23:09;;;;;;;5.75;1.90;;;;;;;16.96;81.54;99762.66;2214054;40;20038;-78
2021/07/07 04:24:40;;;;;;;5.03;1.45;;;;;;;16.99;81.51;99765.00;2211373;40;20038;-79
2021/07/07 04:26:13;;;;;;;3.63;1.35;;;;;;;17.05;81.00;99759.84;2207659;40;20479;-78
2021/07/07 04:27:47;;;;;;;4.20;1.40;;;;;;;17.07;81.13;99765.88;2211568;40;20026;-78
2021/07/07 04:29:19;;;;;;;5.18;1.42;;;;;;;17.05;80.66;99766.06;2194339;40;20060;-78
2021/07/07 04:30:51;;;;;;;2.67;0.90;;;;;;;17.06;80.68;99772.31;2212613;40;20110;-77
2021/07/07 04:32:23;;;;;;;2.25;0.93;;;;;;;17.06;79.88;99780.41;2211763;40;20417;-79
2021/07/07 04:33:55;;;;;;;3.55;1.50;;;;;;;17.07;79.93;99795.59;2212425;40;20045;-79
2021/07/07 04:35:26;;;;;;;8.05;1.70;;;;;;;17.05;79.90;99792.25;2211504;40;20045;-77
2021/07/07 04:36:58;;;;;;;4.55;1.45;;;;;;;17.03;79.56;99799.69;2210715;40;20075;-78
2021/07/07 04:38:29;;;;;;;5.18;1.58;;;;;;;16.98;79.61;99801.13;2213968;40;20033;-77
2021/07/07 04:40:01;;;;;;;6.05;1.90;;;;;;;16.94;79.97;99812.50;2216238;40;20034;-77
2021/07/07 04:41:35;;;;;;;3.75;1.48;;;;;;;16.90;80.05;99819.25;2214077;40;20044;-78
2021/07/07 04:43:06;;;;;;;3.08;1.20;;;;;;;16.84;80.43;99828.97;2214323;40;20142;-78
2021/07/07 04:44:37;;;;;;;3.20;1.35;;;;;;;16.81;80.98;99829.38;2212252;40;20041;-78
2021/07/07 04:46:10;;;;;;;4.07;1.20;;;;;;;16.81;81.27;99835.59;2210675;40;20083;-78
2021/07/07 04:47:42;;;;;;;5.97;2.13;;;;;;;16.84;81.54;99834.34;2213236;40;20050;-77
2021/07/07 04:49:13;;;;;;;6.55;1.88;;;;;;;16.87;81.56;99839.38;2211523;40;20053;-77
2021/07/07 04:50:44;;;;;;;8.55;2.88;;;;;;;16.92;81.95;99828.00;2211607;40;20352;-77
2021/07/07 04:52:16;;;;;;;3.60;1.42;;;;;;;16.94;81.91;99818.72;2219358;40;20064;-78
2021/07/07 04:53:47;;;;;;;3.88;1.70;;;;;;;17.02;82.06;99814.22;2212417;40;20064;-78
2021/07/07 04:55:19;;;;;;;4.90;2.35;;;;;;;17.08;82.13;99808.06;2219751;40;20499;-77
2021/07/07 04:56:52;;;;;;;6.53;2.97;;;;;;;17.10;82.30;99811.38;2212012;40;20042;-78
2021/07/07 04:58:25;;;;;;;7.50;1.70;;;;;;;17.10;82.67;99803.28;2213776;40;20309;-77
2021/07/07 04:59:55;;;;;;;6.13;2.03;;;;;;;17.13;82.60;99794.81;2214659;40;20741;-78
2021/07/07 05:01:27;;;;;;;4.82;1.27;;;;;;;17.15;82.32;99808.94;2214100;40;20049;-77
2021/07/07 05:02:59;;;;;;;6.55;2.40;;;;;;;17.19;82.36;99809.41;2211597;40;20329;-78
2021/07/07 05:04:31;;;;;;;8.68;1.58;;;;;;;17.21;82.35;99802.75;2214071;40;20064;-78
2021/07/07 05:06:03;;;;;;;6.38;2.00;;;;;;;17.23;82.49;99803.41;2214405;40;20078;-77
2021/07/07 05:07:35;;;;;;;5.28;1.70;;;;;;;17.26;82.19;99802.19;2213496;40;20135;-78
2021/07/07 05:09:07;;;;;;;6.28;1.75;;;;;;;17.25;82.36;99805.91;2212351;40;20053;-78
2021/07/07 05:10:38;;;;;;;7.13;2.00;;;;;;;17.25;82.16;99801.34;2211890;40;20056;-77
2021/07/07 05:12:12;;;;;;;7.82;1.98;;;;;;;17.19;81.81;99785.94;2213279;40;20069;-77
2021/07/07 05:13:44;;;;;;;7.43;2.70;;;;;;;17.12;81.95;99785.88;2212959;40;20390;-77
2021/07/07 05:15:16;;;;;;;4.05;1.63;;;;;;;17.10;82.11;99789.78;2212819;40;20640;-78
2021/07/07 05:16:47;;;;;;;4.18;1.67;;;;;;;17.12;81.89;99799.38;2199695;40;20066;-77
2021/07/07 05:18:20;;;;;;;7.35;1.77;;;;;;;17.12;81.92;99815.59;2212482;40;20348;-77
2021/07/07 05:19:52;;;;;;;7.93;2.17;;;;;;;17.12;82.05;99817.44;2211334;40;20025;-77
2021/07/07 05:21:24;;;;;;;3.78;1.67;;;;;;;17.16;82.06;99816.03;2213876;40;20044;-77
2021/07/07 05:22:55;;;;;;;6.70;1.88;;;;;;;17.22;82.00;99817.13;2211287;40;20056;-76
2021/07/07 05:24:26;;;;;;;6.15;2.33;;;;;;;17.30;nan;99823.22;2207377;40;20429;-77
2021/07/07 05:25:58;;;;;;;4.68;1.55;;;;;;;17.38;81.62;99827.66;2209920;40;20030;-77
2021/07/07 05:27:31;;;;;;;4.32;1.88;;;;;;;17.44;81.50;99828.75;2210368;40;20060;-78
2021/07/07 05:29:03;;;;;;;3.45;1.38;;;;;;;17.47;81.13;99839.16;2211765;40;20054;-78
2021/07/07 05:30:36;;;;;;;3.15;1.45;;;;;;;17.49;80.82;99845.19;2214282;40;20034;-78
2021/07/07 05:32:08;;;;;;;5.00;1.85;;;;;;;17.52;81.10;99838.56;2211987;40;20131;-77
2021/07/07 05:33:39;;;;;;;5.22;1.60;;;;;;;17.52;80.67;99849.38;2214023;40;20054;-77
2021/07/07 05:35:11;;;;;;;5.50;2.03;;;;;;;17.52;80.61;99850.22;2212454;40;20038;-77
2021/07/07 05:36:43;;;;;;;4.72;2.97;;;;;;;17.48;80.57;99857.03;2214657;40;20128;-77
2021/07/07 05:38:14;;;;;;;6.57;3.05;;;;;;;17.42;80.83;99861.38;2212394;40;20045;-77
2021/07/07 05:39:45;;;;;;;5.95;2.13;;;;;;;17.38;81.18;99846.56;2214661;40;20056;-77
2021/07/07 05:41:17;;;;;;;5.20;2.20;;;;;;;17.37;80.95;99853.00;2213318;40;20342;-76
2021/07/07 05:42:52;;;;;;;5.55;2.00;;;;;;;17.43;81.00;99851.38;2212947;40;20060;-76
2021/07/07 05:44:25;;;;;;;7.25;1.92;;;;;;;17.43;81.28;99844.09;2216016;40;20061;-77
2021/07/07 05:45:58;;;;;;;7.95;2.90;;;;;;;17.54;80.98;99842.75;2213634;40;20117;-77
2021/07/07 05:47:29;;;;;;;6.47;4.05;;;;;;;17.65;80.87;99852.19;2213370;40;20404;-77
2021/07/07 05:49:01;;;;;;;10.60;6.10;;;;;;;17.70;80.50;99852.44;2213398;40;20385;-77
2021/07/07 05:50:33;;;;;;;8.27;6.40;;;;;;;17.73;80.44;99843.09;2215029;40;20053;-78
2021/07/07 05:52:05;;;;;;;7.85;4.07;;;;;;;17.76;80.14;99842.69;2214022;40;20444;-78
2021/07/07 05:53:37;;;;;;;6.15;2.55;;;;;;;17.74;80.21;99851.00;2214826;40;20041;-78
2021/07/07 05:55:10;;;;;;;5.45;3.88;;;;;;;17.75;79.81;99863.50;2214393;40;20033;-78
2021/07/07 05:56:42;;;;;;;6.07;2.72;;;;;;;17.69;79.53;99867.00;2215078;40;20057;-76
2021/07/07 05:58:16;;;;;;;5.35;2.65;;;;;;;17.61;80.00;99867.97;2217806;40;20062;-78
2021/07/07 05:59:47;;;;;;;5.63;2.53;;;;;;;17.64;79.78;99874.00;2215947;40;20325;-77
2021/07/07 06:01:18;;;;;;;7.25;2.55;;;;;;;17.68;79.98;99864.47;2216321;40;20037;-76
2021/07/07 06:02:52;;;;;;;5.53;2.95;;;;;;;17.70;79.56;99865.09;2216728;40;20033;-78
2021/07/07 06:04:24;;;;;;;4.75;2.05;;;;;;;17.69;79.26;99855.31;2218479;40;20025;-78
2021/07/07 06:05:56;;;;;;;6.40;2.45;;;;;;;17.70;79.27;99854.28;2216233;40;20042;-78
2021/07/07 06:07:27;;;;;;;5.20;2.45;;;;;;;17.69;79.40;99858.03;2215581;40;20056;-78
2021/07/07 06:08:58;;;;;;;5.03;3.05;;;;;;;17.69;79.48;99853.47;2214074;40;20038;-79
2021/07/07 06:10:30;;;;;;;4.47;2.22;;;;;;;17.67;79.52;99850.13;2215241;40;20313;-78
2021/07/07 06:12:02;;;;;;;6.57;3.10;;;;;;;17.69;79.01;99852.63;2213150;40;20031;-78
2021/07/07 06:13:35;;;;;;;6.32;2.08;;;;;;;17.71;79.08;99845.16;2216214;40;20057;-78
2021/07/07 06:15:08;;;;;;;4.47;2.97;;;;;;;17.73;78.78;99840.41;2216356;40;20052;-78
2021/07/07 06:16:40;;;;;;;5.82;2.50;;;;;;;17.71;78.96;99839.75;2216700;40;20422;-78
2021/07/07 06:18:12;;;;;;;4.60;2.25;;;;;;;17.70;78.71;99835.38;2217324;40;20583;-77
2021/07/07 06:19:43;;;;;;;4.68;1.77;;;;;;;17.66;79.01;99843.03;2220276;40;20049;-76
2021/07/07 06:21:14;;;;;;;4.10;1.95;;;;;;;17.68;78.97;99841.00;2215597;40;20049;-78
2021/07/07 06:22:46;;;;;;;4.68;2.17;;;;;;;17.71;78.85;99835.16;2214197;40;20037;-77
2021/07/07 06:24:18;;;;;;;5.28;1.50;;;;;;;17.73;78.85;99849.31;2213990;40;20038;-78
2021/07/07 06:25:50;;;;;;;4.47;1.50;;;;;;;17.76;78.95;99851.66;2213966;40;20057;-78
2021/07/07 06:27:21;;;;;;;3.65;1.42;;;;;;;17.80;78.56;99857.50;2213403;40;20041;-78
2021/07/07 06:28:54;;;;;;;5.07;2.17;;;;;;;17.84;78.50;99853.38;2214154;40;20472;-79
2021/07/07 06:30:26;;;;;;;4.63;1.70;;;;;;;17.77;78.59;99850.63;2214365;40;20029;-78
2021/07/07 06:31:57;;;;;;;6.22;1.45;;;;;;;17.74;78.41;99844.78;2214395;40;20048;-77
2021/07/07 06:33:29;;;;;;;8.45;1.83;;;;;;;17.74;78.79;99845.59;2213181;40;20441;-77
2021/07/07 06:35:01;;;;;;;4.10;1.70;;;;;;;17.78;78.84;99856.84;2217601;40;20033;-78
2021/07/07 06:36:33;;;;;;;4.95;2.08;;;;;;;17.82;78.43;99851.88;2206887;40;20645;-78
2021/07/07 06:38:05;;;;;;;6.20;1.92;;;;;;;17.87;78.72;99855.66;2211864;40;20421;-78
2021/07/07 06:39:36;;;;;;;6.95;3.55;;;;;;;17.91;78.49;99854.25;2215480;40;20037;-78
2021/07/07 06:41:08;;;;;;;5.72;2.08;;;;;;;17.95;78.40;99845.75;2212246;40;20041;-78
2021/07/07 06:42:41;;;;;;;5.40;2.03;;;;;;;17.99;78.69;99853.31;2212236;40;20038;-78
2021/07/07 06:44:14;;;;;;;4.90;1.90;;;;;;;18.02;78.44;99860.19;2212972;40;20333;-78
2021/07/07 06:45:48;;;;;;;3.72;1.55;;;;;;;18.02;77.88;99869.13;2214034;40;20030;-76
2021/07/07 06:47:20;;;;;;;3.70;1.58;;;;;;;18.05;77.69;99867.88;2205961;40;20457;-77
2021/07/07 06:48:52;;;;;;;4.82;2.03;;;;;;;18.04;77.92;99868.94;2207595;40;20422;-77
2021/07/07 06:50:24;;;;;;;7.25;3.20;;;;;;;18.05;78.15;99862.47;2215715;40;20037;-77
2021/07/07 06:51:55;;;;;;;8.45;4.30;;;;;;;18.04;78.15;99860.81;2216152;40;20110;-77
2021/07/07 06:53:27;;;;;;;5.90;2.80;;;;;;;18.01;78.88;99869.31;2216034;40;20053;-77
2021/07/07 06:54:59;;;;;;;6.25;2.50;;;;;;;18.02;79.00;99879.09;2213094;40;20487;-77
2021/07/07 06:56:31;;;;;;;6.03;2.70;;;;;;;18.02;78.60;99879.94;2213164;40;20061;-77
2021/07/07 06:58:05;;;;;;;5.72;1.88;;;;;;;18.05;78.96;99882.25;2216193;40;20033;-78
2021/07/07 06:59:38;;;;;;;5.15;1.85;;;;;;;18.07;78.99;99887.44;2212968;40;20037;-77
2021/07/07 07:01:10;;;;;;;5.95;2.22;;;;;;;18.06;78.71;99897.44;2213465;40;20057;-77
2021/07/07 07:02:43;;;;;;;5.53;1.95;;;;;;;18.06;78.54;99902.00;2213896;40;20044;-77
2021/07/07 07:04:14;;;;;;;3.20;1.55;;;;;;;18.00;78.24;99913.63;2214291;40;20038;-76
2021/07/07 07:05:46;;;;;;;5.90;1.67;;;;;;;17.96;78.19;99917.72;2213167;40;20064;-76
2021/07/07 07:07:18;;;;;;;4.10;1.58;;;;;;;17.92;78.10;99918.13;2213958;40;20528;-77
2021/07/07 07:08:50;;;;;;;4.70;1.60;;;;;;;17.88;78.62;99922.22;2211848;40;20045;-77
2021/07/07 07:10:21;;;;;;;5.40;2.20;;;;;;;17.82;78.91;99928.44;2208677;40;20034;-77
2021/07/07 07:11:53;;;;;;;5.32;1.90;;;;;;;17.79;79.13;99926.13;2211632;40;20065;-77
2021/07/07 07:13:25;;;;;;;3.55;1.60;;;;;;;17.82;79.46;99928.44;2208501;40;20325;-77
2021/07/07 07:14:57;;;;;;;5.05;1.73;;;;;;;17.91;79.46;99927.25;2210184;40;20040;-78
2021/07/07 07:16:29;;;;;;;8.90;2.08;;;;;;;18.00;79.49;99927.97;2212321;40;20110;-79
2021/07/07 07:18:01;;;;;;;5.10;2.08;;;;;;;18.07;79.39;99926.16;2215095;40;20030;-79
2021/07/07 07:19:33;;;;;;;6.05;2.15;;;;;;;18.02;79.26;99923.19;2217003;40;20057;-79
2021/07/07 07:21:05;;;;;;;4.30;1.48;;;;;;;17.96;79.14;99932.13;2218508;40;20033;-77
2021/07/07 07:22:38;;;;;;;3.10;1.25;;;;;;;17.92;78.43;99931.63;2212845;40;20041;-77
2021/07/07 07:24:10;;;;;;;7.63;1.58;;;;;;;17.98;77.90;99932.75;2210951;40;20613;-78
2021/07/07 07:25:42;;;;;;;4.18;1.75;;;;;;;17.99;77.33;99939.84;2214616;40;20029;-76
2021/07/07 07:27:14;;;;;;;4.45;1.30;;;;;;;18.01;77.15;99942.34;2214754;40;20030;-79
2021/07/07 07:28:47;;;;;;;3.75;1.58;;;;;;;18.06;77.30;99942.56;2210945;40;20028;-78
2021/07/07 07:30:20;;;;;;;3.40;1.40;;;;;;;18.16;76.96;99939.53;2210231;40;20044;-78
2021/07/07 07:31:52;;;;;;;4.18;1.40;;;;;;;18.29;76.28;99938.78;2213744;40;20056;-77
2021/07/07 07:42:24;;;;;;;3.20;1.20;;;;;;;18.42;75.12;99925.31;2160867;41;20038;-85
2021/07/07 08:33:56;;;;;;;3.35;1.20;;;;;;;19.51;68.14;99957.25;2184277;40;20043;-86
2021/07/07 10:17:37;;;;;;;4.40;1.75;;;;;;;20.88;60.41;100009.19;2207886;40;20046;-86
2021/07/07 10:19:10;;;;;;;4.03;1.33;;;;;;;20.89;60.23;100012.75;2208755;40;20295;-85
2021/07/07 10:20:42;;;;;;;4.15;1.05;;;;;;;21.01;59.95;100010.22;2208700;40;20059;-85
2021/07/07 10:22:14;;;;;;;5.88;1.67;;;;;;;20.98;59.54;100006.03;2209098;40;20469;-86
2021/07/07 10:23:48;;;;;;;4.35;1.35;;;;;;;21.01;59.42;99996.63;2208825;40;20041;-85
2021/07/07 10:25:22;;;;;;;4.20;1.20;;;;;;;21.00;59.05;100009.38;2207651;40;20069;-83
2021/07/07 10:26:58;;;;;;;5.15;1.27;;;;;;;20.98;59.03;99999.75;2209065;40;20598;-85
2021/07/07 10:28:31;;;;;;;6.90;1.10;;;;;;;20.94;59.28;100010.22;2208597;40;20061;-84
2021/07/07 10:30:03;;;;;;;7.18;1.50;;;;;;;21.05;59.12;100006.00;2209113;40;20046;-87
2021/07/07 10:31:49;;;;;;;3.28;1.10;;;;;;;21.14;58.64;99998.47;2208304;40;20050;-86
2021/07/07 10:33:23;;;;;;;5.03;1.65;;;;;;;21.10;58.46;99989.06;2208238;40;20185;-83
2021/07/07 10:34:55;;;;;;;4.18;1.35;;;;;;;21.16;58.45;99991.75;2208702;40;20120;-86
2021/07/07 10:36:28;;;;;;;5.10;1.58;;;;;;;21.34;58.24;99988.31;2208775;40;20043;-86
2021/07/07 10:37:59;;;;;;;4.20;1.20;;;;;;;21.45;57.88;99991.38;2209136;40;20346;-85
2021/07/07 10:39:32;;;;;;;6.05;1.20;;;;;;;21.38;57.88;99990.59;2208508;40;20040;-85
2021/07/07 10:41:03;;;;;;;4.97;1.60;;;;;;;21.30;58.00;99989.78;2207744;40;20031;-85
2021/07/07 10:42:43;;;;;;;5.25;1.45;;;;;;;21.36;57.15;99993.53;2214505;40;20038;-85
2021/07/07 10:44:29;;;;;;;;;;;;;;;21.34;56.86;99992.91;2208018;40;20089;-86
2021/07/07 10:46:00;;;;;;;6.50;1.40;;;;;;;21.58;56.69;99991.34;2207826;40;19949;-85
2021/07/07 10:47:36;;;;;;;3.22;1.15;;;;;;;22.08;55.64;99997.91;2208123;40;20030;-85